sensor_id;sensor_type;location;lat;lon;timestamp;P1;durP1;ratioP1;P2;durP2;ratioP2
10154;SDS011;5118;48.570;7.916;2024-03-08T00:02:01;81.23;;;46.70;;
10154;SDS011;5118;48.570;7.916;2024-03-08T00:04:30;84.17;;;47.97;;
10154;SDS011;5118;48.570;7.916;2024-03-08T00:06:58;94.53;;;49.90;;
10154;SDS011;5118;48.570;7.916;2024-03-08T00:09:27;85.67;;;47.57;;
10154;SDS011;5118;48.570;7.916;2024-03-08T00:11:58;94.23;;;50.60;;
10154;SDS011;5118;48.570;7.916;2024-03-08T00:14:27;91.47;;;48.60;;
10154;SDS011;5118;48.570;7.916;2024-03-08T00:16:55;84.87;;;47.13;;
10154;SDS011;5118;48.570;7.916;2024-03-08T00:19:24;99.30;;;52.03;;
10154;SDS011;5118;48.570;7.916;2024-03-08T00:21:52;104.03;;;52.30;;
10154;SDS011;5118;48.570;7.916;2024-03-08T00:24:22;100.40;;;51.40;;
10154;SDS011;5118;48.570;7.916;2024-03-08T00:26:51;99.67;;;52.90;;
10154;SDS011;5118;48.570;7.916;2024-03-08T00:29:22;93.03;;;50.73;;
10154;SDS011;5118;48.570;7.916;2024-03-08T00:31:51;90.93;;;48.50;;
10154;SDS011;5118;48.570;7.916;2024-03-08T00:34:19;91.93;;;48.30;;
10154;SDS011;5118;48.570;7.916;2024-03-08T00:36:47;83.67;;;45.97;;
10154;SDS011;5118;48.570;7.916;2024-03-08T00:39:16;83.67;;;44.00;;
10154;SDS011;5118;48.570;7.916;2024-03-08T00:41:46;77.57;;;42.37;;
10154;SDS011;5118;48.570;7.916;2024-03-08T00:44:15;74.77;;;41.80;;
10154;SDS011;5118;48.570;7.916;2024-03-08T00:46:45;78.77;;;41.30;;
10154;SDS011;5118;48.570;7.916;2024-03-08T00:49:17;82.43;;;41.83;;
10154;SDS011;5118;48.570;7.916;2024-03-08T00:51:45;81.90;;;42.73;;
10154;SDS011;5118;48.570;7.916;2024-03-08T00:54:13;80.67;;;42.17;;
10154;SDS011;5118;48.570;7.916;2024-03-08T00:56:43;87.83;;;43.90;;
10154;SDS011;5118;48.570;7.916;2024-03-08T00:59:12;90.67;;;43.43;;
10154;SDS011;5118;48.570;7.916;2024-03-08T01:01:41;92.50;;;46.27;;
10154;SDS011;5118;48.570;7.916;2024-03-08T01:04:12;96.37;;;47.10;;
10154;SDS011;5118;48.570;7.916;2024-03-08T01:06:40;100.63;;;47.40;;
10154;SDS011;5118;48.570;7.916;2024-03-08T01:09:14;106.23;;;47.67;;
10154;SDS011;5118;48.570;7.916;2024-03-08T01:11:45;101.37;;;46.83;;
10154;SDS011;5118;48.570;7.916;2024-03-08T01:14:13;96.63;;;45.77;;
10154;SDS011;5118;48.570;7.916;2024-03-08T01:16:41;97.90;;;47.87;;
10154;SDS011;5118;48.570;7.916;2024-03-08T01:19:11;90.13;;;46.40;;
10154;SDS011;5118;48.570;7.916;2024-03-08T01:21:40;94.47;;;47.10;;
10154;SDS011;5118;48.570;7.916;2024-03-08T01:24:09;104.57;;;48.87;;
10154;SDS011;5118;48.570;7.916;2024-03-08T01:26:37;123.97;;;54.90;;
10154;SDS011;5118;48.570;7.916;2024-03-08T01:29:06;123.00;;;55.23;;
10154;SDS011;5118;48.570;7.916;2024-03-08T01:31:35;129.33;;;56.20;;
10154;SDS011;5118;48.570;7.916;2024-03-08T01:34:04;128.93;;;54.80;;
10154;SDS011;5118;48.570;7.916;2024-03-08T01:36:33;121.77;;;53.57;;
10154;SDS011;5118;48.570;7.916;2024-03-08T01:39:04;98.17;;;47.13;;
10154;SDS011;5118;48.570;7.916;2024-03-08T01:41:35;116.20;;;52.13;;
10154;SDS011;5118;48.570;7.916;2024-03-08T01:44:03;109.53;;;49.93;;
10154;SDS011;5118;48.570;7.916;2024-03-08T01:46:34;101.47;;;48.70;;
10154;SDS011;5118;48.570;7.916;2024-03-08T01:49:02;102.73;;;47.90;;
10154;SDS011;5118;48.570;7.916;2024-03-08T01:51:31;102.93;;;45.63;;
10154;SDS011;5118;48.570;7.916;2024-03-08T01:54:02;91.17;;;43.33;;
10154;SDS011;5118;48.570;7.916;2024-03-08T01:56:31;98.57;;;46.27;;
10154;SDS011;5118;48.570;7.916;2024-03-08T01:59:00;90.87;;;45.60;;
10154;SDS011;5118;48.570;7.916;2024-03-08T02:01:29;84.97;;;42.67;;
10154;SDS011;5118;48.570;7.916;2024-03-08T02:03:58;90.87;;;44.97;;
10154;SDS011;5118;48.570;7.916;2024-03-08T02:06:27;87.10;;;43.23;;
10154;SDS011;5118;48.570;7.916;2024-03-08T02:08:58;90.27;;;43.93;;
10154;SDS011;5118;48.570;7.916;2024-03-08T02:11:27;76.70;;;40.37;;
10154;SDS011;5118;48.570;7.916;2024-03-08T02:13:55;63.40;;;37.27;;
10154;SDS011;5118;48.570;7.916;2024-03-08T02:16:23;76.77;;;38.80;;
10154;SDS011;5118;48.570;7.916;2024-03-08T02:18:52;68.33;;;37.00;;
10154;SDS011;5118;48.570;7.916;2024-03-08T02:21:22;68.37;;;36.27;;
10154;SDS011;5118;48.570;7.916;2024-03-08T02:23:51;66.27;;;36.80;;
10154;SDS011;5118;48.570;7.916;2024-03-08T02:26:20;69.80;;;37.63;;
10154;SDS011;5118;48.570;7.916;2024-03-08T02:28:49;57.30;;;33.83;;
10154;SDS011;5118;48.570;7.916;2024-03-08T02:31:18;62.20;;;35.40;;
10154;SDS011;5118;48.570;7.916;2024-03-08T02:33:47;63.37;;;35.27;;
10154;SDS011;5118;48.570;7.916;2024-03-08T02:36:15;58.83;;;34.10;;
10154;SDS011;5118;48.570;7.916;2024-03-08T02:38:45;64.77;;;35.77;;
10154;SDS011;5118;48.570;7.916;2024-03-08T02:41:14;66.90;;;36.57;;
10154;SDS011;5118;48.570;7.916;2024-03-08T02:43:42;69.13;;;36.40;;
10154;SDS011;5118;48.570;7.916;2024-03-08T02:46:12;66.80;;;36.87;;
10154;SDS011;5118;48.570;7.916;2024-03-08T02:48:42;67.47;;;35.23;;
10154;SDS011;5118;48.570;7.916;2024-03-08T02:51:10;70.90;;;35.93;;
10154;SDS011;5118;48.570;7.916;2024-03-08T02:53:40;55.03;;;32.50;;
10154;SDS011;5118;48.570;7.916;2024-03-08T02:56:11;55.93;;;32.13;;
10154;SDS011;5118;48.570;7.916;2024-03-08T02:58:42;50.70;;;31.50;;
10154;SDS011;5118;48.570;7.916;2024-03-08T03:01:15;52.33;;;31.30;;
10154;SDS011;5118;48.570;7.916;2024-03-08T03:03:43;54.20;;;31.03;;
10154;SDS011;5118;48.570;7.916;2024-03-08T03:06:13;53.17;;;30.47;;
10154;SDS011;5118;48.570;7.916;2024-03-08T03:08:42;52.13;;;31.00;;
10154;SDS011;5118;48.570;7.916;2024-03-08T03:11:13;57.80;;;32.13;;
10154;SDS011;5118;48.570;7.916;2024-03-08T03:13:42;52.87;;;30.93;;
10154;SDS011;5118;48.570;7.916;2024-03-08T03:16:17;51.33;;;30.40;;
10154;SDS011;5118;48.570;7.916;2024-03-08T03:18:46;52.13;;;30.30;;
10154;SDS011;5118;48.570;7.916;2024-03-08T03:21:16;51.97;;;30.37;;
10154;SDS011;5118;48.570;7.916;2024-03-08T03:23:44;52.70;;;30.23;;
10154;SDS011;5118;48.570;7.916;2024-03-08T03:26:16;52.27;;;30.17;;
10154;SDS011;5118;48.570;7.916;2024-03-08T03:28:45;45.10;;;28.10;;
10154;SDS011;5118;48.570;7.916;2024-03-08T03:31:14;46.13;;;28.13;;
10154;SDS011;5118;48.570;7.916;2024-03-08T03:33:45;41.03;;;27.07;;
10154;SDS011;5118;48.570;7.916;2024-03-08T03:36:13;38.60;;;25.80;;
10154;SDS011;5118;48.570;7.916;2024-03-08T03:38:43;38.40;;;25.50;;
10154;SDS011;5118;48.570;7.916;2024-03-08T03:41:11;38.93;;;25.20;;
10154;SDS011;5118;48.570;7.916;2024-03-08T03:43:42;38.47;;;25.73;;
10154;SDS011;5118;48.570;7.916;2024-03-08T03:46:10;38.27;;;25.30;;
10154;SDS011;5118;48.570;7.916;2024-03-08T03:48:39;36.30;;;25.00;;
10154;SDS011;5118;48.570;7.916;2024-03-08T03:51:10;34.83;;;24.50;;
10154;SDS011;5118;48.570;7.916;2024-03-08T03:53:38;40.80;;;26.27;;
10154;SDS011;5118;48.570;7.916;2024-03-08T03:56:07;40.80;;;26.53;;
10154;SDS011;5118;48.570;7.916;2024-03-08T03:58:35;41.63;;;26.53;;
10154;SDS011;5118;48.570;7.916;2024-03-08T04:01:05;41.57;;;26.40;;
10154;SDS011;5118;48.570;7.916;2024-03-08T04:03:34;40.53;;;26.23;;
10154;SDS011;5118;48.570;7.916;2024-03-08T04:06:03;42.33;;;27.03;;
10154;SDS011;5118;48.570;7.916;2024-03-08T04:08:32;43.03;;;26.60;;
10154;SDS011;5118;48.570;7.916;2024-03-08T04:11:01;46.07;;;27.67;;
10154;SDS011;5118;48.570;7.916;2024-03-08T04:13:30;44.67;;;27.90;;
10154;SDS011;5118;48.570;7.916;2024-03-08T04:15:58;48.33;;;28.90;;
10154;SDS011;5118;48.570;7.916;2024-03-08T04:18:28;46.40;;;28.33;;
10154;SDS011;5118;48.570;7.916;2024-03-08T04:20:56;51.13;;;29.87;;
10154;SDS011;5118;48.570;7.916;2024-03-08T04:23:25;53.33;;;30.57;;
10154;SDS011;5118;48.570;7.916;2024-03-08T04:25:55;52.57;;;30.43;;
10154;SDS011;5118;48.570;7.916;2024-03-08T04:28:23;56.77;;;31.33;;
10154;SDS011;5118;48.570;7.916;2024-03-08T04:30:53;55.77;;;32.03;;
10154;SDS011;5118;48.570;7.916;2024-03-08T04:33:21;56.53;;;33.33;;
10154;SDS011;5118;48.570;7.916;2024-03-08T04:35:51;56.87;;;33.00;;
10154;SDS011;5118;48.570;7.916;2024-03-08T04:38:20;56.93;;;33.40;;
10154;SDS011;5118;48.570;7.916;2024-03-08T04:40:48;59.30;;;33.73;;
10154;SDS011;5118;48.570;7.916;2024-03-08T04:43:17;62.20;;;34.20;;
10154;SDS011;5118;48.570;7.916;2024-03-08T04:45:47;62.07;;;34.77;;
10154;SDS011;5118;48.570;7.916;2024-03-08T04:48:15;68.50;;;36.03;;
10154;SDS011;5118;48.570;7.916;2024-03-08T04:50:44;70.77;;;39.23;;
10154;SDS011;5118;48.570;7.916;2024-03-08T04:53:14;78.70;;;38.73;;
10154;SDS011;5118;48.570;7.916;2024-03-08T04:55:42;78.40;;;40.37;;
10154;SDS011;5118;48.570;7.916;2024-03-08T04:58:11;84.00;;;40.37;;
10154;SDS011;5118;48.570;7.916;2024-03-08T05:00:39;88.53;;;41.47;;
10154;SDS011;5118;48.570;7.916;2024-03-08T05:03:07;79.87;;;39.67;;
10154;SDS011;5118;48.570;7.916;2024-03-08T05:05:36;85.20;;;40.03;;
10154;SDS011;5118;48.570;7.916;2024-03-08T05:08:05;90.47;;;42.13;;
10154;SDS011;5118;48.570;7.916;2024-03-08T05:10:35;89.63;;;43.20;;
10154;SDS011;5118;48.570;7.916;2024-03-08T05:13:03;106.60;;;44.30;;
10154;SDS011;5118;48.570;7.916;2024-03-08T05:15:32;95.03;;;44.73;;
10154;SDS011;5118;48.570;7.916;2024-03-08T05:18:01;94.87;;;43.40;;
10154;SDS011;5118;48.570;7.916;2024-03-08T05:20:30;92.47;;;45.47;;
10154;SDS011;5118;48.570;7.916;2024-03-08T05:22:59;100.90;;;45.37;;
10154;SDS011;5118;48.570;7.916;2024-03-08T05:25:27;87.77;;;42.50;;
10154;SDS011;5118;48.570;7.916;2024-03-08T05:27:57;90.23;;;42.33;;
10154;SDS011;5118;48.570;7.916;2024-03-08T05:30:26;96.70;;;44.00;;
10154;SDS011;5118;48.570;7.916;2024-03-08T05:32:54;99.40;;;44.10;;
10154;SDS011;5118;48.570;7.916;2024-03-08T05:35:23;110.33;;;51.03;;
10154;SDS011;5118;48.570;7.916;2024-03-08T05:37:52;114.53;;;52.93;;
10154;SDS011;5118;48.570;7.916;2024-03-08T05:40:21;110.27;;;49.10;;
10154;SDS011;5118;48.570;7.916;2024-03-08T05:42:49;108.13;;;47.17;;
10154;SDS011;5118;48.570;7.916;2024-03-08T05:45:19;107.70;;;47.00;;
10154;SDS011;5118;48.570;7.916;2024-03-08T05:47:47;112.00;;;45.07;;
10154;SDS011;5118;48.570;7.916;2024-03-08T05:50:16;109.13;;;44.53;;
10154;SDS011;5118;48.570;7.916;2024-03-08T05:52:44;134.77;;;48.10;;
10154;SDS011;5118;48.570;7.916;2024-03-08T05:55:14;110.23;;;45.03;;
10154;SDS011;5118;48.570;7.916;2024-03-08T05:57:43;121.93;;;45.97;;
10154;SDS011;5118;48.570;7.916;2024-03-08T06:00:11;118.83;;;45.50;;
10154;SDS011;5118;48.570;7.916;2024-03-08T06:02:44;126.03;;;46.47;;
10154;SDS011;5118;48.570;7.916;2024-03-08T06:05:13;122.20;;;46.13;;
10154;SDS011;5118;48.570;7.916;2024-03-08T06:07:41;119.63;;;47.50;;
10154;SDS011;5118;48.570;7.916;2024-03-08T06:10:10;116.80;;;47.63;;
10154;SDS011;5118;48.570;7.916;2024-03-08T06:12:39;118.53;;;49.70;;
10154;SDS011;5118;48.570;7.916;2024-03-08T06:15:09;113.23;;;50.10;;
10154;SDS011;5118;48.570;7.916;2024-03-08T06:17:41;125.33;;;51.13;;
10154;SDS011;5118;48.570;7.916;2024-03-08T06:20:11;123.60;;;51.40;;
10154;SDS011;5118;48.570;7.916;2024-03-08T06:22:40;127.17;;;53.03;;
10154;SDS011;5118;48.570;7.916;2024-03-08T06:25:11;120.03;;;51.47;;
10154;SDS011;5118;48.570;7.916;2024-03-08T06:27:40;111.63;;;49.87;;
10154;SDS011;5118;48.570;7.916;2024-03-08T06:30:13;119.50;;;50.17;;
10154;SDS011;5118;48.570;7.916;2024-03-08T06:32:42;124.47;;;50.40;;
10154;SDS011;5118;48.570;7.916;2024-03-08T06:35:12;101.53;;;49.43;;
10154;SDS011;5118;48.570;7.916;2024-03-08T06:37:43;124.70;;;50.93;;
10154;SDS011;5118;48.570;7.916;2024-03-08T06:40:12;123.57;;;50.20;;
10154;SDS011;5118;48.570;7.916;2024-03-08T06:42:41;134.53;;;54.60;;
10154;SDS011;5118;48.570;7.916;2024-03-08T06:45:10;110.47;;;50.30;;
10154;SDS011;5118;48.570;7.916;2024-03-08T06:47:39;107.77;;;50.03;;
10154;SDS011;5118;48.570;7.916;2024-03-08T06:50:10;114.43;;;49.60;;
10154;SDS011;5118;48.570;7.916;2024-03-08T06:52:40;108.43;;;47.80;;
10154;SDS011;5118;48.570;7.916;2024-03-08T06:55:11;115.73;;;48.47;;
10154;SDS011;5118;48.570;7.916;2024-03-08T06:57:41;96.20;;;45.73;;
10154;SDS011;5118;48.570;7.916;2024-03-08T07:00:10;100.43;;;46.40;;
10154;SDS011;5118;48.570;7.916;2024-03-08T07:02:45;93.80;;;45.53;;
10154;SDS011;5118;48.570;7.916;2024-03-08T07:05:15;93.70;;;45.13;;
10154;SDS011;5118;48.570;7.916;2024-03-08T07:07:46;91.73;;;44.40;;
10154;SDS011;5118;48.570;7.916;2024-03-08T07:10:16;83.53;;;43.13;;
10154;SDS011;5118;48.570;7.916;2024-03-08T07:12:46;98.17;;;45.43;;
10154;SDS011;5118;48.570;7.916;2024-03-08T07:15:14;80.57;;;43.60;;
10154;SDS011;5118;48.570;7.916;2024-03-08T07:17:46;79.90;;;42.80;;
10154;SDS011;5118;48.570;7.916;2024-03-08T07:20:15;89.17;;;46.73;;
10154;SDS011;5118;48.570;7.916;2024-03-08T07:22:47;80.77;;;45.13;;
10154;SDS011;5118;48.570;7.916;2024-03-08T07:25:17;74.97;;;41.33;;
10154;SDS011;5118;48.570;7.916;2024-03-08T07:27:49;71.93;;;40.67;;
10154;SDS011;5118;48.570;7.916;2024-03-08T07:30:18;64.83;;;38.23;;
10154;SDS011;5118;48.570;7.916;2024-03-08T07:33:17;63.83;;;37.90;;
10154;SDS011;5118;48.570;7.916;2024-03-08T07:35:45;62.03;;;38.27;;
10154;SDS011;5118;48.570;7.916;2024-03-08T07:38:17;58.63;;;36.20;;
10154;SDS011;5118;48.570;7.916;2024-03-08T07:40:47;56.17;;;35.43;;
10154;SDS011;5118;48.570;7.916;2024-03-08T07:43:16;57.17;;;36.57;;
10154;SDS011;5118;48.570;7.916;2024-03-08T07:45:44;55.37;;;35.03;;
10154;SDS011;5118;48.570;7.916;2024-03-08T07:48:13;52.20;;;32.73;;
10154;SDS011;5118;48.570;7.916;2024-03-08T07:50:41;50.53;;;33.33;;
10154;SDS011;5118;48.570;7.916;2024-03-08T07:53:10;50.77;;;32.83;;
10154;SDS011;5118;48.570;7.916;2024-03-08T07:55:39;49.13;;;32.40;;
10154;SDS011;5118;48.570;7.916;2024-03-08T07:58:09;49.87;;;33.53;;
10154;SDS011;5118;48.570;7.916;2024-03-08T08:00:38;49.10;;;32.30;;
10154;SDS011;5118;48.570;7.916;2024-03-08T08:03:09;48.37;;;30.30;;
10154;SDS011;5118;48.570;7.916;2024-03-08T08:05:39;48.50;;;31.77;;
10154;SDS011;5118;48.570;7.916;2024-03-08T08:08:08;44.70;;;30.67;;
10154;SDS011;5118;48.570;7.916;2024-03-08T08:10:39;41.53;;;28.20;;
10154;SDS011;5118;48.570;7.916;2024-03-08T08:13:08;41.63;;;28.20;;
10154;SDS011;5118;48.570;7.916;2024-03-08T08:15:38;41.53;;;28.40;;
10154;SDS011;5118;48.570;7.916;2024-03-08T08:18:06;42.93;;;30.03;;
10154;SDS011;5118;48.570;7.916;2024-03-08T08:20:37;40.00;;;28.67;;
10154;SDS011;5118;48.570;7.916;2024-03-08T08:23:05;38.00;;;27.03;;
10154;SDS011;5118;48.570;7.916;2024-03-08T08:25:35;35.63;;;26.70;;
10154;SDS011;5118;48.570;7.916;2024-03-08T08:28:06;40.70;;;27.57;;
10154;SDS011;5118;48.570;7.916;2024-03-08T08:30:35;34.63;;;26.47;;
10154;SDS011;5118;48.570;7.916;2024-03-08T08:33:03;39.80;;;27.87;;
10154;SDS011;5118;48.570;7.916;2024-03-08T08:35:32;37.50;;;28.10;;
10154;SDS011;5118;48.570;7.916;2024-03-08T08:38:01;34.23;;;25.83;;
10154;SDS011;5118;48.570;7.916;2024-03-08T08:40:31;35.03;;;25.70;;
10154;SDS011;5118;48.570;7.916;2024-03-08T08:42:59;36.97;;;26.37;;
10154;SDS011;5118;48.570;7.916;2024-03-08T08:45:32;32.20;;;23.50;;
10154;SDS011;5118;48.570;7.916;2024-03-08T08:48:00;36.67;;;25.63;;
10154;SDS011;5118;48.570;7.916;2024-03-08T08:50:29;30.43;;;23.37;;
10154;SDS011;5118;48.570;7.916;2024-03-08T08:52:58;30.37;;;23.50;;
10154;SDS011;5118;48.570;7.916;2024-03-08T08:55:26;29.43;;;22.63;;
10154;SDS011;5118;48.570;7.916;2024-03-08T08:57:55;29.67;;;23.30;;
10154;SDS011;5118;48.570;7.916;2024-03-08T09:00:24;31.50;;;24.20;;
10154;SDS011;5118;48.570;7.916;2024-03-08T09:02:56;30.90;;;24.17;;
10154;SDS011;5118;48.570;7.916;2024-03-08T09:05:25;28.33;;;22.80;;
10154;SDS011;5118;48.570;7.916;2024-03-08T09:07:54;31.63;;;23.83;;
10154;SDS011;5118;48.570;7.916;2024-03-08T09:10:23;29.73;;;23.40;;
10154;SDS011;5118;48.570;7.916;2024-03-08T09:12:54;27.93;;;22.33;;
10154;SDS011;5118;48.570;7.916;2024-03-08T09:15:23;28.17;;;21.90;;
10154;SDS011;5118;48.570;7.916;2024-03-08T09:17:57;29.03;;;22.23;;
10154;SDS011;5118;48.570;7.916;2024-03-08T09:20:27;27.63;;;20.67;;
10154;SDS011;5118;48.570;7.916;2024-03-08T09:22:56;28.00;;;22.23;;
10154;SDS011;5118;48.570;7.916;2024-03-08T09:25:24;27.50;;;20.97;;
10154;SDS011;5118;48.570;7.916;2024-03-08T09:27:53;23.57;;;19.30;;
10154;SDS011;5118;48.570;7.916;2024-03-08T09:30:22;23.93;;;19.53;;
10154;SDS011;5118;48.570;7.916;2024-03-08T09:32:50;24.27;;;19.70;;
10154;SDS011;5118;48.570;7.916;2024-03-08T09:35:21;22.73;;;18.43;;
10154;SDS011;5118;48.570;7.916;2024-03-08T09:37:51;23.30;;;19.57;;
10154;SDS011;5118;48.570;7.916;2024-03-08T09:40:19;26.03;;;20.10;;
10154;SDS011;5118;48.570;7.916;2024-03-08T09:42:50;24.27;;;19.40;;
10154;SDS011;5118;48.570;7.916;2024-03-08T09:45:19;21.80;;;17.97;;
10154;SDS011;5118;48.570;7.916;2024-03-08T09:47:50;23.97;;;19.63;;
10154;SDS011;5118;48.570;7.916;2024-03-08T09:50:20;23.17;;;19.10;;
10154;SDS011;5118;48.570;7.916;2024-03-08T09:52:50;23.63;;;19.90;;
10154;SDS011;5118;48.570;7.916;2024-03-08T09:55:18;22.63;;;18.77;;
10154;SDS011;5118;48.570;7.916;2024-03-08T09:57:50;21.30;;;16.93;;
10154;SDS011;5118;48.570;7.916;2024-03-08T10:00:54;23.80;;;18.70;;
10154;SDS011;5118;48.570;7.916;2024-03-08T10:03:24;23.13;;;18.83;;
10154;SDS011;5118;48.570;7.916;2024-03-08T10:05:54;21.50;;;17.27;;
10154;SDS011;5118;48.570;7.916;2024-03-08T10:08:27;23.17;;;18.53;;
10154;SDS011;5118;48.570;7.916;2024-03-08T10:10:57;21.13;;;18.30;;
10154;SDS011;5118;48.570;7.916;2024-03-08T10:13:26;22.13;;;18.47;;
10154;SDS011;5118;48.570;7.916;2024-03-08T10:15:54;22.60;;;18.57;;
10154;SDS011;5118;48.570;7.916;2024-03-08T10:18:23;22.53;;;18.70;;
10154;SDS011;5118;48.570;7.916;2024-03-08T10:23:37;25.17;;;18.97;;
10154;SDS011;5118;48.570;7.916;2024-03-08T10:26:09;23.17;;;19.27;;
10154;SDS011;5118;48.570;7.916;2024-03-08T10:28:41;25.47;;;20.80;;
10154;SDS011;5118;48.570;7.916;2024-03-08T10:31:11;22.33;;;19.20;;
10154;SDS011;5118;48.570;7.916;2024-03-08T10:33:44;22.77;;;19.07;;
10154;SDS011;5118;48.570;7.916;2024-03-08T10:36:15;21.40;;;18.13;;
10154;SDS011;5118;48.570;7.916;2024-03-08T10:38:46;22.55;;;19.88;;
10154;SDS011;5118;48.570;7.916;2024-03-08T10:41:15;22.63;;;17.77;;
10154;SDS011;5118;48.570;7.916;2024-03-08T10:43:50;22.90;;;16.73;;
10154;SDS011;5118;48.570;7.916;2024-03-08T10:46:38;20.53;;;17.70;;
10154;SDS011;5118;48.570;7.916;2024-03-08T10:49:17;22.83;;;18.10;;
10154;SDS011;5118;48.570;7.916;2024-03-08T10:51:53;22.27;;;17.87;;
10154;SDS011;5118;48.570;7.916;2024-03-08T10:54:24;19.70;;;16.70;;
10154;SDS011;5118;48.570;7.916;2024-03-08T10:56:54;17.80;;;15.80;;
10154;SDS011;5118;48.570;7.916;2024-03-08T10:59:23;18.03;;;16.13;;
10154;SDS011;5118;48.570;7.916;2024-03-08T11:01:54;18.73;;;16.80;;
10154;SDS011;5118;48.570;7.916;2024-03-08T11:04:22;16.20;;;14.50;;
10154;SDS011;5118;48.570;7.916;2024-03-08T11:06:52;16.58;;;14.88;;
10154;SDS011;5118;48.570;7.916;2024-03-08T11:09:30;17.17;;;15.43;;
10154;SDS011;5118;48.570;7.916;2024-03-08T11:14:48;16.80;;;14.35;;
10154;SDS011;5118;48.570;7.916;2024-03-08T11:17:20;16.52;;;14.75;;
10154;SDS011;5118;48.570;7.916;2024-03-08T11:19:49;15.35;;;13.77;;
10154;SDS011;5118;48.570;7.916;2024-03-08T11:22:25;17.13;;;15.52;;
10154;SDS011;5118;48.570;7.916;2024-03-08T11:24:58;15.35;;;13.85;;
10154;SDS011;5118;48.570;7.916;2024-03-08T11:27:29;15.93;;;14.43;;
10154;SDS011;5118;48.570;7.916;2024-03-08T11:30:00;14.95;;;13.55;;
10154;SDS011;5118;48.570;7.916;2024-03-08T11:32:44;16.70;;;15.18;;
10154;SDS011;5118;48.570;7.916;2024-03-08T11:35:18;15.48;;;14.07;;
10154;SDS011;5118;48.570;7.916;2024-03-08T11:37:49;15.23;;;13.77;;
10154;SDS011;5118;48.570;7.916;2024-03-08T11:40:18;16.23;;;14.73;;
10154;SDS011;5118;48.570;7.916;2024-03-08T11:42:50;15.63;;;14.23;;
10154;SDS011;5118;48.570;7.916;2024-03-08T11:45:19;13.13;;;11.82;;
10154;SDS011;5118;48.570;7.916;2024-03-08T11:47:48;14.75;;;13.43;;
10154;SDS011;5118;48.570;7.916;2024-03-08T11:50:18;13.93;;;12.63;;
10154;SDS011;5118;48.570;7.916;2024-03-08T11:52:49;14.07;;;12.88;;
10154;SDS011;5118;48.570;7.916;2024-03-08T11:55:18;14.70;;;13.38;;
10154;SDS011;5118;48.570;7.916;2024-03-08T11:57:47;13.35;;;12.25;;
10154;SDS011;5118;48.570;7.916;2024-03-08T12:00:16;12.68;;;11.48;;
10154;SDS011;5118;48.570;7.916;2024-03-08T12:03:02;13.80;;;12.60;;
10154;SDS011;5118;48.570;7.916;2024-03-08T12:05:36;15.48;;;14.23;;
10154;SDS011;5118;48.570;7.916;2024-03-08T12:08:06;14.63;;;13.32;;
10154;SDS011;5118;48.570;7.916;2024-03-08T12:10:40;13.43;;;12.20;;
10154;SDS011;5118;48.570;7.916;2024-03-08T12:13:09;14.73;;;13.43;;
10154;SDS011;5118;48.570;7.916;2024-03-08T12:15:40;14.50;;;13.27;;
10154;SDS011;5118;48.570;7.916;2024-03-08T12:18:11;14.48;;;13.10;;
10154;SDS011;5118;48.570;7.916;2024-03-08T12:20:39;17.77;;;15.98;;
10154;SDS011;5118;48.570;7.916;2024-03-08T12:23:15;12.90;;;11.80;;
10154;SDS011;5118;48.570;7.916;2024-03-08T12:25:43;13.35;;;12.23;;
10154;SDS011;5118;48.570;7.916;2024-03-08T12:28:12;13.73;;;12.60;;
10154;SDS011;5118;48.570;7.916;2024-03-08T12:30:45;13.70;;;12.45;;
10154;SDS011;5118;48.570;7.916;2024-03-08T12:33:16;13.50;;;12.32;;
10154;SDS011;5118;48.570;7.916;2024-03-08T12:35:50;14.35;;;13.13;;
10154;SDS011;5118;48.570;7.916;2024-03-08T12:38:24;13.27;;;12.18;;
10154;SDS011;5118;48.570;7.916;2024-03-08T12:40:58;13.77;;;12.57;;
10154;SDS011;5118;48.570;7.916;2024-03-08T12:43:27;12.75;;;11.65;;
10154;SDS011;5118;48.570;7.916;2024-03-08T12:45:58;12.65;;;11.65;;
10154;SDS011;5118;48.570;7.916;2024-03-08T12:48:26;12.80;;;11.80;;
10154;SDS011;5118;48.570;7.916;2024-03-08T12:50:55;13.15;;;12.02;;
10154;SDS011;5118;48.570;7.916;2024-03-08T12:53:25;13.60;;;12.32;;
10154;SDS011;5118;48.570;7.916;2024-03-08T12:55:55;14.35;;;13.23;;
10154;SDS011;5118;48.570;7.916;2024-03-08T12:58:24;13.40;;;12.20;;
10154;SDS011;5118;48.570;7.916;2024-03-08T13:00:53;13.60;;;12.50;;
10154;SDS011;5118;48.570;7.916;2024-03-08T13:03:22;13.25;;;12.15;;
10154;SDS011;5118;48.570;7.916;2024-03-08T13:05:50;14.20;;;12.90;;
10154;SDS011;5118;48.570;7.916;2024-03-08T13:08:19;14.55;;;13.35;;
10154;SDS011;5118;48.570;7.916;2024-03-08T13:10:53;15.30;;;14.00;;
10154;SDS011;5118;48.570;7.916;2024-03-08T13:13:23;13.85;;;12.75;;
10154;SDS011;5118;48.570;7.916;2024-03-08T13:15:51;13.40;;;12.20;;
10154;SDS011;5118;48.570;7.916;2024-03-08T13:18:23;14.23;;;12.98;;
10154;SDS011;5118;48.570;7.916;2024-03-08T13:20:51;13.35;;;12.15;;
10154;SDS011;5118;48.570;7.916;2024-03-08T13:23:21;12.75;;;11.65;;
10154;SDS011;5118;48.570;7.916;2024-03-08T13:25:49;11.85;;;10.80;;
10154;SDS011;5118;48.570;7.916;2024-03-08T13:28:19;16.25;;;14.80;;
10154;SDS011;5118;48.570;7.916;2024-03-08T13:30:51;15.80;;;14.50;;
10154;SDS011;5118;48.570;7.916;2024-03-08T13:33:25;15.32;;;13.93;;
10154;SDS011;5118;48.570;7.916;2024-03-08T13:35:55;13.57;;;12.48;;
10154;SDS011;5118;48.570;7.916;2024-03-08T13:38:31;12.93;;;11.73;;
10154;SDS011;5118;48.570;7.916;2024-03-08T13:41:00;12.77;;;11.73;;
10154;SDS011;5118;48.570;7.916;2024-03-08T13:43:30;13.68;;;12.57;;
10154;SDS011;5118;48.570;7.916;2024-03-08T13:46:01;14.00;;;12.73;;
10154;SDS011;5118;48.570;7.916;2024-03-08T13:48:30;12.90;;;11.90;;
10154;SDS011;5118;48.570;7.916;2024-03-08T13:50:59;13.98;;;12.68;;
10154;SDS011;5118;48.570;7.916;2024-03-08T13:53:27;13.32;;;12.13;;
10154;SDS011;5118;48.570;7.916;2024-03-08T13:55:56;15.90;;;14.43;;
10154;SDS011;5118;48.570;7.916;2024-03-08T13:58:25;13.97;;;12.83;;
10154;SDS011;5118;48.570;7.916;2024-03-08T14:00:55;13.10;;;11.95;;
10154;SDS011;5118;48.570;7.916;2024-03-08T14:03:23;14.05;;;12.95;;
10154;SDS011;5118;48.570;7.916;2024-03-08T14:05:52;14.70;;;12.73;;
10154;SDS011;5118;48.570;7.916;2024-03-08T14:08:22;13.07;;;11.88;;
10154;SDS011;5118;48.570;7.916;2024-03-08T14:10:51;14.50;;;11.98;;
10154;SDS011;5118;48.570;7.916;2024-03-08T14:13:20;13.10;;;12.07;;
10154;SDS011;5118;48.570;7.916;2024-03-08T14:15:50;13.23;;;12.07;;
10154;SDS011;5118;48.570;7.916;2024-03-08T14:18:20;12.93;;;11.77;;
10154;SDS011;5118;48.570;7.916;2024-03-08T14:20:49;12.35;;;11.25;;
10154;SDS011;5118;48.570;7.916;2024-03-08T14:23:18;13.27;;;12.18;;
10154;SDS011;5118;48.570;7.916;2024-03-08T14:25:48;11.27;;;10.38;;
10154;SDS011;5118;48.570;7.916;2024-03-08T14:28:18;11.30;;;10.38;;
10154;SDS011;5118;48.570;7.916;2024-03-08T14:30:49;12.23;;;10.98;;
10154;SDS011;5118;48.570;7.916;2024-03-08T14:33:20;10.77;;;9.82;;
10154;SDS011;5118;48.570;7.916;2024-03-08T14:35:51;10.45;;;9.45;;
10154;SDS011;5118;48.570;7.916;2024-03-08T14:38:19;10.80;;;9.80;;
10154;SDS011;5118;48.570;7.916;2024-03-08T14:40:48;10.90;;;10.00;;
10154;SDS011;5118;48.570;7.916;2024-03-08T14:43:16;12.18;;;11.18;;
10154;SDS011;5118;48.570;7.916;2024-03-08T14:45:46;11.13;;;10.18;;
10154;SDS011;5118;48.570;7.916;2024-03-08T14:48:15;11.57;;;10.65;;
10154;SDS011;5118;48.570;7.916;2024-03-08T14:50:44;11.73;;;10.63;;
10154;SDS011;5118;48.570;7.916;2024-03-08T14:53:14;11.73;;;10.73;;
10154;SDS011;5118;48.570;7.916;2024-03-08T14:55:45;10.73;;;9.82;;